Bartonville, Illinois
Current Conditions -  °F | °C
As of 7:54 PM on Tuesday 21 Oct 2014 (Local Time) from KPIA Reporting Station
Clear Clear  
Wind Chill: 50°   Ceiling: Unl
Heat Index: 50°   Visibility: 10mi
Dew Point: 38°   Wind: 5mph
Humidity: 63%   Direction: 50°NE
Pressure: 30.21"   Gusts: NA
Location:  40.6465°N, 89.6859°W
Report Text: KPIA 220054Z 05004KT 10SM CLR 10/03 A3021 RMK AO2 SLP233 T01000033
Loading
Personal Weather Stations






























Interactive Weather Map New forecast layout! Learn more

10-Day Weather Forecast

Advertisements
Track Severe Weather on mobile